sensor_id;sensor_type;location;lat;lon;timestamp;temperature;humidity
3528;DHT22;1778;47.966;7.854;2022-10-16T00:00:41;15.10;99.90
3528;DHT22;1778;47.966;7.854;2022-10-16T00:01:43;15.00;99.90
3528;DHT22;1778;47.966;7.854;2022-10-16T00:02:45;15.10;99.90
3528;DHT22;1778;47.966;7.854;2022-10-16T00:03:47;15.10;99.90
3528;DHT22;1778;47.966;7.854;2022-10-16T00:04:49;15.00;99.90
3528;DHT22;1778;47.966;7.854;2022-10-16T00:05:51;15.10;99.90
3528;DHT22;1778;47.966;7.854;2022-10-16T00:06:54;15.10;99.90
3528;DHT22;1778;47.966;7.854;2022-10-16T00:07:55;15.20;99.90
3528;DHT22;1778;47.966;7.854;2022-10-16T00:08:57;15.20;99.90
3528;DHT22;1778;47.966;7.854;2022-10-16T00:09:58;15.20;99.90
3528;DHT22;1778;47.966;7.854;2022-10-16T00:11:11;15.20;99.90
3528;DHT22;1778;47.966;7.854;2022-10-16T00:12:13;15.20;99.90
3528;DHT22;1778;47.966;7.854;2022-10-16T00:13:15;15.20;99.90
3528;DHT22;1778;47.966;7.854;2022-10-16T00:14:18;15.10;99.90
3528;DHT22;1778;47.966;7.854;2022-10-16T00:15:20;15.10;99.90
3528;DHT22;1778;47.966;7.854;2022-10-16T00:16:21;15.10;99.90
3528;DHT22;1778;47.966;7.854;2022-10-16T00:17:23;15.10;99.90
3528;DHT22;1778;47.966;7.854;2022-10-16T00:18:26;15.10;99.90
3528;DHT22;1778;47.966;7.854;2022-10-16T00:19:27;15.10;99.90
3528;DHT22;1778;47.966;7.854;2022-10-16T00:20:29;15.10;99.90
3528;DHT22;1778;47.966;7.854;2022-10-16T00:21:51;15.10;99.90
3528;DHT22;1778;47.966;7.854;2022-10-16T00:23:11;15.20;99.90
3528;DHT22;1778;47.966;7.854;2022-10-16T00:24:13;15.20;99.90
3528;DHT22;1778;47.966;7.854;2022-10-16T00:25:14;15.20;99.90
3528;DHT22;1778;47.966;7.854;2022-10-16T00:26:17;15.20;99.90
3528;DHT22;1778;47.966;7.854;2022-10-16T00:27:19;15.20;99.90
3528;DHT22;1778;47.966;7.854;2022-10-16T00:28:21;15.20;99.90
3528;DHT22;1778;47.966;7.854;2022-10-16T00:29:22;15.20;99.90
3528;DHT22;1778;47.966;7.854;2022-10-16T00:30:24;15.20;99.90
3528;DHT22;1778;47.966;7.854;2022-10-16T00:31:28;15.20;99.90
3528;DHT22;1778;47.966;7.854;2022-10-16T00:32:30;15.20;99.90
3528;DHT22;1778;47.966;7.854;2022-10-16T00:33:33;15.20;99.90
3528;DHT22;1778;47.966;7.854;2022-10-16T00:34:35;15.20;99.90
3528;DHT22;1778;47.966;7.854;2022-10-16T00:35:36;15.20;99.90
3528;DHT22;1778;47.966;7.854;2022-10-16T00:36:38;15.10;99.90
3528;DHT22;1778;47.966;7.854;2022-10-16T00:37:39;15.20;99.90
3528;DHT22;1778;47.966;7.854;2022-10-16T00:38:41;15.20;99.90
3528;DHT22;1778;47.966;7.854;2022-10-16T00:39:43;15.20;99.90
3528;DHT22;1778;47.966;7.854;2022-10-16T00:40:44;15.10;99.90
3528;DHT22;1778;47.966;7.854;2022-10-16T00:41:46;15.10;99.90
3528;DHT22;1778;47.966;7.854;2022-10-16T00:42:47;15.10;99.90
3528;DHT22;1778;47.966;7.854;2022-10-16T00:43:50;15.10;99.90
3528;DHT22;1778;47.966;7.854;2022-10-16T00:44:55;15.10;99.90
3528;DHT22;1778;47.966;7.854;2022-10-16T00:45:59;15.10;99.90
3528;DHT22;1778;47.966;7.854;2022-10-16T00:47:00;15.20;99.90
3528;DHT22;1778;47.966;7.854;2022-10-16T00:48:02;15.20;99.90
3528;DHT22;1778;47.966;7.854;2022-10-16T00:49:17;15.20;99.90
3528;DHT22;1778;47.966;7.854;2022-10-16T00:50:24;15.20;99.90
3528;DHT22;1778;47.966;7.854;2022-10-16T00:51:42;15.30;99.90
3528;DHT22;1778;47.966;7.854;2022-10-16T00:52:47;15.30;99.90
3528;DHT22;1778;47.966;7.854;2022-10-16T00:53:50;15.20;99.90
3528;DHT22;1778;47.966;7.854;2022-10-16T00:54:52;15.20;99.90
3528;DHT22;1778;47.966;7.854;2022-10-16T00:55:54;15.20;99.90
3528;DHT22;1778;47.966;7.854;2022-10-16T00:57:00;15.20;99.90
3528;DHT22;1778;47.966;7.854;2022-10-16T00:58:03;15.20;99.90
3528;DHT22;1778;47.966;7.854;2022-10-16T00:59:10;15.30;99.90
3528;DHT22;1778;47.966;7.854;2022-10-16T01:00:20;15.40;99.90
3528;DHT22;1778;47.966;7.854;2022-10-16T01:01:22;15.30;99.90
3528;DHT22;1778;47.966;7.854;2022-10-16T01:02:24;15.20;99.90
3528;DHT22;1778;47.966;7.854;2022-10-16T01:03:32;15.30;99.90
3528;DHT22;1778;47.966;7.854;2022-10-16T01:04:40;15.30;99.90
3528;DHT22;1778;47.966;7.854;2022-10-16T01:05:49;15.30;99.90
3528;DHT22;1778;47.966;7.854;2022-10-16T01:07:06;15.30;99.90
3528;DHT22;1778;47.966;7.854;2022-10-16T01:08:33;15.30;99.90
3528;DHT22;1778;47.966;7.854;2022-10-16T01:11:29;15.30;99.90
3528;DHT22;1778;47.966;7.854;2022-10-16T01:13:55;15.30;99.90
3528;DHT22;1778;47.966;7.854;2022-10-16T01:16:15;15.30;99.90
3528;DHT22;1778;47.966;7.854;2022-10-16T01:19:13;15.30;99.90
3528;DHT22;1778;47.966;7.854;2022-10-16T01:21:29;15.20;99.90
3528;DHT22;1778;47.966;7.854;2022-10-16T01:24:22;15.30;99.90
3528;DHT22;1778;47.966;7.854;2022-10-16T01:27:25;15.40;99.90
3528;DHT22;1778;47.966;7.854;2022-10-16T01:28:34;15.30;99.90
3528;DHT22;1778;47.966;7.854;2022-10-16T01:30:15;15.30;99.90
3528;DHT22;1778;47.966;7.854;2022-10-16T01:31:18;15.30;99.90
3528;DHT22;1778;47.966;7.854;2022-10-16T01:32:43;15.30;99.90
3528;DHT22;1778;47.966;7.854;2022-10-16T01:33:54;15.30;99.90
3528;DHT22;1778;47.966;7.854;2022-10-16T01:35:18;15.20;99.90
3528;DHT22;1778;47.966;7.854;2022-10-16T01:36:26;15.20;99.90
3528;DHT22;1778;47.966;7.854;2022-10-16T01:37:40;15.20;99.90
3528;DHT22;1778;47.966;7.854;2022-10-16T01:38:44;15.30;99.90
3528;DHT22;1778;47.966;7.854;2022-10-16T01:39:49;15.20;99.90
3528;DHT22;1778;47.966;7.854;2022-10-16T01:40:57;15.30;99.90
3528;DHT22;1778;47.966;7.854;2022-10-16T01:42:12;15.30;99.90
3528;DHT22;1778;47.966;7.854;2022-10-16T01:43:20;15.30;99.90
3528;DHT22;1778;47.966;7.854;2022-10-16T01:44:26;15.20;99.90
3528;DHT22;1778;47.966;7.854;2022-10-16T01:45:30;15.20;99.90
3528;DHT22;1778;47.966;7.854;2022-10-16T01:46:34;15.20;99.90
3528;DHT22;1778;47.966;7.854;2022-10-16T01:47:37;15.30;99.90
3528;DHT22;1778;47.966;7.854;2022-10-16T01:48:39;15.30;99.90
3528;DHT22;1778;47.966;7.854;2022-10-16T01:49:43;15.30;99.90
3528;DHT22;1778;47.966;7.854;2022-10-16T01:50:55;15.30;99.90
3528;DHT22;1778;47.966;7.854;2022-10-16T01:52:02;15.30;99.90
3528;DHT22;1778;47.966;7.854;2022-10-16T01:53:07;15.30;99.90
3528;DHT22;1778;47.966;7.854;2022-10-16T01:54:11;15.30;99.90
3528;DHT22;1778;47.966;7.854;2022-10-16T01:55:18;15.40;99.90
3528;DHT22;1778;47.966;7.854;2022-10-16T01:56:22;15.40;99.90
3528;DHT22;1778;47.966;7.854;2022-10-16T01:57:26;15.40;99.90
3528;DHT22;1778;47.966;7.854;2022-10-16T01:58:29;15.30;99.90
3528;DHT22;1778;47.966;7.854;2022-10-16T01:59:39;15.20;99.90
3528;DHT22;1778;47.966;7.854;2022-10-16T02:00:44;15.30;99.90
3528;DHT22;1778;47.966;7.854;2022-10-16T02:01:54;15.30;99.90
3528;DHT22;1778;47.966;7.854;2022-10-16T02:02:58;15.30;99.90
3528;DHT22;1778;47.966;7.854;2022-10-16T02:04:15;15.20;99.90
3528;DHT22;1778;47.966;7.854;2022-10-16T02:05:43;15.20;99.90
3528;DHT22;1778;47.966;7.854;2022-10-16T02:06:46;15.20;99.90
3528;DHT22;1778;47.966;7.854;2022-10-16T02:07:49;15.30;99.90
3528;DHT22;1778;47.966;7.854;2022-10-16T02:08:50;15.20;99.90
3528;DHT22;1778;47.966;7.854;2022-10-16T02:09:52;15.20;99.90
3528;DHT22;1778;47.966;7.854;2022-10-16T02:10:55;15.20;99.90
3528;DHT22;1778;47.966;7.854;2022-10-16T02:12:00;15.10;99.90
3528;DHT22;1778;47.966;7.854;2022-10-16T02:13:13;15.20;99.90
3528;DHT22;1778;47.966;7.854;2022-10-16T02:14:17;15.10;99.90
3528;DHT22;1778;47.966;7.854;2022-10-16T02:15:20;15.10;99.90
3528;DHT22;1778;47.966;7.854;2022-10-16T02:16:39;15.10;99.90
3528;DHT22;1778;47.966;7.854;2022-10-16T02:17:45;15.10;99.90
3528;DHT22;1778;47.966;7.854;2022-10-16T02:18:46;15.10;99.90
3528;DHT22;1778;47.966;7.854;2022-10-16T02:19:50;15.10;99.90
3528;DHT22;1778;47.966;7.854;2022-10-16T02:22:30;15.10;99.90
3528;DHT22;1778;47.966;7.854;2022-10-16T02:27:17;15.10;99.90
3528;DHT22;1778;47.966;7.854;2022-10-16T02:27:59;15.10;99.90
3528;DHT22;1778;47.966;7.854;2022-10-16T02:29:06;15.10;99.90
3528;DHT22;1778;47.966;7.854;2022-10-16T02:30:48;15.10;99.90
3528;DHT22;1778;47.966;7.854;2022-10-16T02:31:56;15.10;99.90
3528;DHT22;1778;47.966;7.854;2022-10-16T02:33:01;15.10;99.90
3528;DHT22;1778;47.966;7.854;2022-10-16T02:34:05;15.00;99.90
3528;DHT22;1778;47.966;7.854;2022-10-16T02:35:08;15.10;99.90
3528;DHT22;1778;47.966;7.854;2022-10-16T02:36:10;15.10;99.90
3528;DHT22;1778;47.966;7.854;2022-10-16T02:37:12;15.10;99.90
3528;DHT22;1778;47.966;7.854;2022-10-16T02:38:15;15.10;99.90
3528;DHT22;1778;47.966;7.854;2022-10-16T02:39:18;15.20;99.90
3528;DHT22;1778;47.966;7.854;2022-10-16T02:40:20;15.20;99.90
3528;DHT22;1778;47.966;7.854;2022-10-16T02:41:26;15.10;99.90
3528;DHT22;1778;47.966;7.854;2022-10-16T02:42:29;15.10;99.90
3528;DHT22;1778;47.966;7.854;2022-10-16T02:43:34;15.10;99.90
3528;DHT22;1778;47.966;7.854;2022-10-16T02:44:35;15.10;99.90
3528;DHT22;1778;47.966;7.854;2022-10-16T02:45:37;15.10;99.90
3528;DHT22;1778;47.966;7.854;2022-10-16T02:46:38;15.20;99.90
3528;DHT22;1778;47.966;7.854;2022-10-16T02:47:40;15.20;99.90
3528;DHT22;1778;47.966;7.854;2022-10-16T02:48:41;15.20;99.90
3528;DHT22;1778;47.966;7.854;2022-10-16T02:49:43;15.20;99.90
3528;DHT22;1778;47.966;7.854;2022-10-16T02:50:45;15.30;99.90
3528;DHT22;1778;47.966;7.854;2022-10-16T02:51:46;15.30;99.90
3528;DHT22;1778;47.966;7.854;2022-10-16T02:52:48;15.30;99.90
3528;DHT22;1778;47.966;7.854;2022-10-16T02:53:49;15.30;99.90
3528;DHT22;1778;47.966;7.854;2022-10-16T02:54:51;15.30;99.90
3528;DHT22;1778;47.966;7.854;2022-10-16T02:55:53;15.30;99.90
3528;DHT22;1778;47.966;7.854;2022-10-16T02:56:54;15.30;99.90
3528;DHT22;1778;47.966;7.854;2022-10-16T02:57:55;15.40;99.90
3528;DHT22;1778;47.966;7.854;2022-10-16T02:58:57;15.30;99.90
3528;DHT22;1778;47.966;7.854;2022-10-16T02:59:58;15.40;99.90
3528;DHT22;1778;47.966;7.854;2022-10-16T03:01:00;15.30;99.90
3528;DHT22;1778;47.966;7.854;2022-10-16T03:02:01;15.30;99.90
3528;DHT22;1778;47.966;7.854;2022-10-16T03:03:03;15.20;99.90
3528;DHT22;1778;47.966;7.854;2022-10-16T03:04:04;15.30;99.90
3528;DHT22;1778;47.966;7.854;2022-10-16T03:05:06;15.30;99.90
3528;DHT22;1778;47.966;7.854;2022-10-16T03:06:08;15.30;99.90
3528;DHT22;1778;47.966;7.854;2022-10-16T03:07:09;15.30;99.90
3528;DHT22;1778;47.966;7.854;2022-10-16T03:08:12;15.30;99.90
3528;DHT22;1778;47.966;7.854;2022-10-16T03:09:13;15.40;99.90
3528;DHT22;1778;47.966;7.854;2022-10-16T03:10:14;15.40;99.90
3528;DHT22;1778;47.966;7.854;2022-10-16T03:11:16;15.40;99.90
3528;DHT22;1778;47.966;7.854;2022-10-16T03:12:18;15.30;99.90
3528;DHT22;1778;47.966;7.854;2022-10-16T03:13:19;15.40;99.90
3528;DHT22;1778;47.966;7.854;2022-10-16T03:14:22;15.40;99.90
3528;DHT22;1778;47.966;7.854;2022-10-16T03:15:23;15.40;99.90
3528;DHT22;1778;47.966;7.854;2022-10-16T03:16:25;15.40;99.90
3528;DHT22;1778;47.966;7.854;2022-10-16T03:17:26;15.30;99.90
3528;DHT22;1778;47.966;7.854;2022-10-16T03:18:28;15.30;99.90
3528;DHT22;1778;47.966;7.854;2022-10-16T03:19:30;15.40;99.90
3528;DHT22;1778;47.966;7.854;2022-10-16T03:20:31;15.40;99.90
3528;DHT22;1778;47.966;7.854;2022-10-16T03:21:33;15.40;99.90
3528;DHT22;1778;47.966;7.854;2022-10-16T03:22:34;15.30;99.90
3528;DHT22;1778;47.966;7.854;2022-10-16T03:23:36;15.30;99.90
3528;DHT22;1778;47.966;7.854;2022-10-16T03:24:38;15.30;99.90
3528;DHT22;1778;47.966;7.854;2022-10-16T03:25:39;15.30;99.90
3528;DHT22;1778;47.966;7.854;2022-10-16T03:26:41;15.40;99.90
3528;DHT22;1778;47.966;7.854;2022-10-16T03:27:43;15.40;99.90
3528;DHT22;1778;47.966;7.854;2022-10-16T03:28:44;15.40;99.90
3528;DHT22;1778;47.966;7.854;2022-10-16T03:29:46;15.40;99.90
3528;DHT22;1778;47.966;7.854;2022-10-16T03:30:47;15.40;99.90
3528;DHT22;1778;47.966;7.854;2022-10-16T03:31:49;15.40;99.90
3528;DHT22;1778;47.966;7.854;2022-10-16T03:32:51;15.40;99.90
3528;DHT22;1778;47.966;7.854;2022-10-16T03:33:55;15.40;99.90
3528;DHT22;1778;47.966;7.854;2022-10-16T03:34:57;15.40;99.90
3528;DHT22;1778;47.966;7.854;2022-10-16T03:35:58;15.40;99.90
3528;DHT22;1778;47.966;7.854;2022-10-16T03:37:00;15.40;99.90
3528;DHT22;1778;47.966;7.854;2022-10-16T03:38:01;15.40;99.90
3528;DHT22;1778;47.966;7.854;2022-10-16T03:39:03;15.40;99.90
3528;DHT22;1778;47.966;7.854;2022-10-16T03:40:05;15.40;99.90
3528;DHT22;1778;47.966;7.854;2022-10-16T03:41:06;15.40;99.90
3528;DHT22;1778;47.966;7.854;2022-10-16T03:42:08;15.50;99.90
3528;DHT22;1778;47.966;7.854;2022-10-16T03:43:10;15.40;99.90
3528;DHT22;1778;47.966;7.854;2022-10-16T03:44:12;15.40;99.90
3528;DHT22;1778;47.966;7.854;2022-10-16T03:45:14;15.40;99.90
3528;DHT22;1778;47.966;7.854;2022-10-16T03:46:15;15.40;99.90
3528;DHT22;1778;47.966;7.854;2022-10-16T03:47:17;15.50;99.90
3528;DHT22;1778;47.966;7.854;2022-10-16T03:48:22;15.50;99.90
3528;DHT22;1778;47.966;7.854;2022-10-16T03:49:24;15.50;99.90
3528;DHT22;1778;47.966;7.854;2022-10-16T03:50:25;15.50;99.90
3528;DHT22;1778;47.966;7.854;2022-10-16T03:51:27;15.50;99.90
3528;DHT22;1778;47.966;7.854;2022-10-16T03:52:28;15.50;99.90
3528;DHT22;1778;47.966;7.854;2022-10-16T03:53:30;15.50;99.90
3528;DHT22;1778;47.966;7.854;2022-10-16T03:54:31;15.50;99.90
3528;DHT22;1778;47.966;7.854;2022-10-16T03:55:33;15.50;99.90
3528;DHT22;1778;47.966;7.854;2022-10-16T03:56:34;15.50;99.90
3528;DHT22;1778;47.966;7.854;2022-10-16T03:57:35;15.50;99.90
3528;DHT22;1778;47.966;7.854;2022-10-16T03:58:37;15.50;99.90
3528;DHT22;1778;47.966;7.854;2022-10-16T03:59:38;15.50;99.90
3528;DHT22;1778;47.966;7.854;2022-10-16T04:00:44;15.50;99.90
3528;DHT22;1778;47.966;7.854;2022-10-16T04:01:45;15.50;99.90
3528;DHT22;1778;47.966;7.854;2022-10-16T04:02:47;15.50;99.90
3528;DHT22;1778;47.966;7.854;2022-10-16T04:03:48;15.50;99.90
3528;DHT22;1778;47.966;7.854;2022-10-16T04:04:49;15.50;99.90
3528;DHT22;1778;47.966;7.854;2022-10-16T04:05:51;15.50;99.90
3528;DHT22;1778;47.966;7.854;2022-10-16T04:06:52;15.50;99.90
3528;DHT22;1778;47.966;7.854;2022-10-16T04:07:54;15.40;99.90
3528;DHT22;1778;47.966;7.854;2022-10-16T04:08:56;15.40;99.90
3528;DHT22;1778;47.966;7.854;2022-10-16T04:09:57;15.40;99.90
3528;DHT22;1778;47.966;7.854;2022-10-16T04:11:00;15.40;99.90
3528;DHT22;1778;47.966;7.854;2022-10-16T04:12:02;15.30;99.90
3528;DHT22;1778;47.966;7.854;2022-10-16T04:13:04;15.30;99.90
3528;DHT22;1778;47.966;7.854;2022-10-16T04:14:05;15.30;99.90
3528;DHT22;1778;47.966;7.854;2022-10-16T04:15:07;15.40;99.90
3528;DHT22;1778;47.966;7.854;2022-10-16T04:16:09;15.40;99.90
3528;DHT22;1778;47.966;7.854;2022-10-16T04:17:10;15.40;99.90
3528;DHT22;1778;47.966;7.854;2022-10-16T04:18:12;15.30;99.90
3528;DHT22;1778;47.966;7.854;2022-10-16T04:19:14;15.40;99.90
3528;DHT22;1778;47.966;7.854;2022-10-16T04:20:16;15.40;99.90
3528;DHT22;1778;47.966;7.854;2022-10-16T04:21:17;15.40;99.90
3528;DHT22;1778;47.966;7.854;2022-10-16T04:22:18;15.40;99.90
3528;DHT22;1778;47.966;7.854;2022-10-16T04:23:20;15.40;99.90
3528;DHT22;1778;47.966;7.854;2022-10-16T04:24:24;15.40;99.90
3528;DHT22;1778;47.966;7.854;2022-10-16T04:25:25;15.50;99.90
3528;DHT22;1778;47.966;7.854;2022-10-16T04:26:26;15.50;99.90
3528;DHT22;1778;47.966;7.854;2022-10-16T04:27:28;15.50;99.90
3528;DHT22;1778;47.966;7.854;2022-10-16T04:28:32;15.40;99.90
3528;DHT22;1778;47.966;7.854;2022-10-16T04:29:34;15.40;99.90
3528;DHT22;1778;47.966;7.854;2022-10-16T04:30:38;15.50;99.90
3528;DHT22;1778;47.966;7.854;2022-10-16T04:31:40;15.50;99.90
3528;DHT22;1778;47.966;7.854;2022-10-16T04:32:41;15.40;99.90
3528;DHT22;1778;47.966;7.854;2022-10-16T04:33:43;15.40;99.90
3528;DHT22;1778;47.966;7.854;2022-10-16T04:34:45;15.40;99.90
3528;DHT22;1778;47.966;7.854;2022-10-16T04:35:46;15.40;99.90
3528;DHT22;1778;47.966;7.854;2022-10-16T04:36:48;15.50;99.90
3528;DHT22;1778;47.966;7.854;2022-10-16T04:37:52;15.50;99.90
3528;DHT22;1778;47.966;7.854;2022-10-16T04:38:54;15.60;99.90
3528;DHT22;1778;47.966;7.854;2022-10-16T04:39:55;15.50;99.90
3528;DHT22;1778;47.966;7.854;2022-10-16T04:40:57;15.50;99.90
3528;DHT22;1778;47.966;7.854;2022-10-16T04:41:58;15.60;99.90
3528;DHT22;1778;47.966;7.854;2022-10-16T04:42:59;15.60;99.90
3528;DHT22;1778;47.966;7.854;2022-10-16T04:44:01;15.70;99.90
3528;DHT22;1778;47.966;7.854;2022-10-16T04:45:04;15.60;99.90
3528;DHT22;1778;47.966;7.854;2022-10-16T04:46:06;15.60;99.90
3528;DHT22;1778;47.966;7.854;2022-10-16T04:47:07;15.60;99.90
3528;DHT22;1778;47.966;7.854;2022-10-16T04:48:09;15.60;99.90
3528;DHT22;1778;47.966;7.854;2022-10-16T04:49:10;15.60;99.90
3528;DHT22;1778;47.966;7.854;2022-10-16T04:50:12;15.50;99.90
3528;DHT22;1778;47.966;7.854;2022-10-16T04:51:13;15.60;99.90
3528;DHT22;1778;47.966;7.854;2022-10-16T04:52:15;15.60;99.90
3528;DHT22;1778;47.966;7.854;2022-10-16T04:53:17;15.60;99.90
3528;DHT22;1778;47.966;7.854;2022-10-16T04:54:19;15.60;99.90
3528;DHT22;1778;47.966;7.854;2022-10-16T04:55:20;15.60;99.90
3528;DHT22;1778;47.966;7.854;2022-10-16T04:56:22;15.60;99.90
3528;DHT22;1778;47.966;7.854;2022-10-16T04:57:23;15.60;99.90
3528;DHT22;1778;47.966;7.854;2022-10-16T04:58:26;15.50;99.90
3528;DHT22;1778;47.966;7.854;2022-10-16T04:59:27;15.60;99.90
3528;DHT22;1778;47.966;7.854;2022-10-16T05:00:29;15.60;99.90
3528;DHT22;1778;47.966;7.854;2022-10-16T05:01:30;15.60;99.90
3528;DHT22;1778;47.966;7.854;2022-10-16T05:02:32;15.60;99.90
3528;DHT22;1778;47.966;7.854;2022-10-16T05:03:34;15.60;99.90
3528;DHT22;1778;47.966;7.854;2022-10-16T05:04:35;15.60;99.90
3528;DHT22;1778;47.966;7.854;2022-10-16T05:05:42;15.50;99.90
3528;DHT22;1778;47.966;7.854;2022-10-16T05:06:44;15.50;99.90
3528;DHT22;1778;47.966;7.854;2022-10-16T05:07:49;15.50;99.90
3528;DHT22;1778;47.966;7.854;2022-10-16T05:08:50;15.60;99.90
3528;DHT22;1778;47.966;7.854;2022-10-16T05:09:52;15.60;99.90
3528;DHT22;1778;47.966;7.854;2022-10-16T05:10:55;15.60;99.90
3528;DHT22;1778;47.966;7.854;2022-10-16T05:11:56;15.60;99.90
3528;DHT22;1778;47.966;7.854;2022-10-16T05:12:58;15.60;99.90
3528;DHT22;1778;47.966;7.854;2022-10-16T05:14:00;15.60;99.90
3528;DHT22;1778;47.966;7.854;2022-10-16T05:15:02;15.70;99.90
3528;DHT22;1778;47.966;7.854;2022-10-16T05:16:04;15.60;99.90
3528;DHT22;1778;47.966;7.854;2022-10-16T05:17:06;15.60;99.90
3528;DHT22;1778;47.966;7.854;2022-10-16T05:18:08;15.60;99.90
3528;DHT22;1778;47.966;7.854;2022-10-16T05:19:10;15.60;99.90
3528;DHT22;1778;47.966;7.854;2022-10-16T05:20:29;15.70;99.90
3528;DHT22;1778;47.966;7.854;2022-10-16T05:21:31;15.60;99.90
3528;DHT22;1778;47.966;7.854;2022-10-16T05:22:32;15.60;99.90
3528;DHT22;1778;47.966;7.854;2022-10-16T05:23:34;15.60;99.90
3528;DHT22;1778;47.966;7.854;2022-10-16T05:24:35;15.70;99.90
3528;DHT22;1778;47.966;7.854;2022-10-16T05:25:37;15.70;99.90
3528;DHT22;1778;47.966;7.854;2022-10-16T05:26:38;15.60;99.90
3528;DHT22;1778;47.966;7.854;2022-10-16T05:27:40;15.60;99.90
3528;DHT22;1778;47.966;7.854;2022-10-16T05:28:41;15.60;99.90
3528;DHT22;1778;47.966;7.854;2022-10-16T05:29:47;15.60;99.90
3528;DHT22;1778;47.966;7.854;2022-10-16T05:30:48;15.60;99.90
3528;DHT22;1778;47.966;7.854;2022-10-16T05:31:51;15.60;99.90
3528;DHT22;1778;47.966;7.854;2022-10-16T05:32:53;15.60;99.90
3528;DHT22;1778;47.966;7.854;2022-10-16T05:33:58;15.60;99.90
3528;DHT22;1778;47.966;7.854;2022-10-16T05:35:00;15.60;99.90
3528;DHT22;1778;47.966;7.854;2022-10-16T05:36:06;15.60;99.90
3528;DHT22;1778;47.966;7.854;2022-10-16T05:37:09;15.60;99.90
3528;DHT22;1778;47.966;7.854;2022-10-16T05:38:10;15.60;99.90
3528;DHT22;1778;47.966;7.854;2022-10-16T05:39:14;15.60;99.90
3528;DHT22;1778;47.966;7.854;2022-10-16T05:40:16;15.50;99.90
3528;DHT22;1778;47.966;7.854;2022-10-16T05:41:19;15.60;99.90
3528;DHT22;1778;47.966;7.854;2022-10-16T05:42:22;15.70;99.90
3528;DHT22;1778;47.966;7.854;2022-10-16T05:43:24;15.70;99.90
3528;DHT22;1778;47.966;7.854;2022-10-16T05:44:25;15.70;99.90
3528;DHT22;1778;47.966;7.854;2022-10-16T05:45:27;15.70;99.90
3528;DHT22;1778;47.966;7.854;2022-10-16T05:46:28;15.70;99.90
3528;DHT22;1778;47.966;7.854;2022-10-16T05:47:30;15.60;99.90
3528;DHT22;1778;47.966;7.854;2022-10-16T05:48:32;15.70;99.90
3528;DHT22;1778;47.966;7.854;2022-10-16T05:49:33;15.60;99.90
3528;DHT22;1778;47.966;7.854;2022-10-16T05:50:40;15.70;99.90
3528;DHT22;1778;47.966;7.854;2022-10-16T05:51:42;15.60;99.90
3528;DHT22;1778;47.966;7.854;2022-10-16T05:52:43;15.70;99.90
3528;DHT22;1778;47.966;7.854;2022-10-16T05:53:45;15.80;99.90
3528;DHT22;1778;47.966;7.854;2022-10-16T05:54:47;15.80;99.90
3528;DHT22;1778;47.966;7.854;2022-10-16T05:55:52;15.70;99.90
3528;DHT22;1778;47.966;7.854;2022-10-16T05:56:54;15.80;99.90
3528;DHT22;1778;47.966;7.854;2022-10-16T05:57:55;15.70;99.90
3528;DHT22;1778;47.966;7.854;2022-10-16T05:58:57;15.70;99.90
3528;DHT22;1778;47.966;7.854;2022-10-16T05:59:58;15.70;99.90
3528;DHT22;1778;47.966;7.854;2022-10-16T06:01:02;15.70;99.90
3528;DHT22;1778;47.966;7.854;2022-10-16T06:02:04;15.70;99.90
3528;DHT22;1778;47.966;7.854;2022-10-16T06:03:06;15.70;99.90
3528;DHT22;1778;47.966;7.854;2022-10-16T06:04:08;15.80;99.90
3528;DHT22;1778;47.966;7.854;2022-10-16T06:05:11;15.80;99.90
3528;DHT22;1778;47.966;7.854;2022-10-16T06:06:15;15.70;99.90
3528;DHT22;1778;47.966;7.854;2022-10-16T06:07:17;15.80;99.90
3528;DHT22;1778;47.966;7.854;2022-10-16T06:08:20;15.70;99.90
3528;DHT22;1778;47.966;7.854;2022-10-16T06:09:22;15.80;99.90
3528;DHT22;1778;47.966;7.854;2022-10-16T06:10:23;15.80;99.90
3528;DHT22;1778;47.966;7.854;2022-10-16T06:11:27;15.80;99.90
3528;DHT22;1778;47.966;7.854;2022-10-16T06:12:29;15.80;99.90
3528;DHT22;1778;47.966;7.854;2022-10-16T06:13:31;15.80;99.90
3528;DHT22;1778;47.966;7.854;2022-10-16T06:14:32;15.90;99.90
3528;DHT22;1778;47.966;7.854;2022-10-16T06:15:34;15.90;99.90
3528;DHT22;1778;47.966;7.854;2022-10-16T06:16:36;15.90;99.90
3528;DHT22;1778;47.966;7.854;2022-10-16T06:17:38;16.00;99.90
3528;DHT22;1778;47.966;7.854;2022-10-16T06:18:39;16.00;99.90
3528;DHT22;1778;47.966;7.854;2022-10-16T06:19:41;16.10;99.90
3528;DHT22;1778;47.966;7.854;2022-10-16T06:20:42;16.00;99.90
3528;DHT22;1778;47.966;7.854;2022-10-16T06:21:44;16.00;99.90
3528;DHT22;1778;47.966;7.854;2022-10-16T06:22:46;16.00;99.90
3528;DHT22;1778;47.966;7.854;2022-10-16T06:23:47;16.10;99.90
3528;DHT22;1778;47.966;7.854;2022-10-16T06:24:49;16.10;99.90
3528;DHT22;1778;47.966;7.854;2022-10-16T06:25:51;16.00;99.90
3528;DHT22;1778;47.966;7.854;2022-10-16T06:26:52;16.10;99.90
3528;DHT22;1778;47.966;7.854;2022-10-16T06:27:54;16.10;99.90
3528;DHT22;1778;47.966;7.854;2022-10-16T06:28:57;16.10;99.90
3528;DHT22;1778;47.966;7.854;2022-10-16T06:29:59;16.10;99.90
3528;DHT22;1778;47.966;7.854;2022-10-16T06:31:01;16.10;99.90
3528;DHT22;1778;47.966;7.854;2022-10-16T06:32:08;16.10;99.90
3528;DHT22;1778;47.966;7.854;2022-10-16T06:33:11;16.10;99.90
3528;DHT22;1778;47.966;7.854;2022-10-16T06:34:13;16.00;99.90
3528;DHT22;1778;47.966;7.854;2022-10-16T06:35:15;16.10;99.90
3528;DHT22;1778;47.966;7.854;2022-10-16T06:36:17;16.10;99.90
3528;DHT22;1778;47.966;7.854;2022-10-16T06:37:19;16.10;99.90
3528;DHT22;1778;47.966;7.854;2022-10-16T06:38:20;16.10;99.90
3528;DHT22;1778;47.966;7.854;2022-10-16T06:39:22;16.10;99.90
3528;DHT22;1778;47.966;7.854;2022-10-16T06:40:23;16.10;99.90
3528;DHT22;1778;47.966;7.854;2022-10-16T06:41:25;16.10;99.90
3528;DHT22;1778;47.966;7.854;2022-10-16T06:42:26;16.10;99.90
3528;DHT22;1778;47.966;7.854;2022-10-16T06:43:31;16.20;99.90
3528;DHT22;1778;47.966;7.854;2022-10-16T06:44:38;16.20;99.90
3528;DHT22;1778;47.966;7.854;2022-10-16T06:45:40;16.20;99.90
3528;DHT22;1778;47.966;7.854;2022-10-16T06:46:41;16.20;99.90
3528;DHT22;1778;47.966;7.854;2022-10-16T06:47:43;16.30;99.90
3528;DHT22;1778;47.966;7.854;2022-10-16T06:48:44;16.20;99.90
3528;DHT22;1778;47.966;7.854;2022-10-16T06:49:46;16.20;99.90
3528;DHT22;1778;47.966;7.854;2022-10-16T06:52:11;16.30;99.90
3528;DHT22;1778;47.966;7.854;2022-10-16T06:53:12;16.30;99.90
3528;DHT22;1778;47.966;7.854;2022-10-16T06:54:15;16.30;99.90
3528;DHT22;1778;47.966;7.854;2022-10-16T06:55:16;16.30;99.90
3528;DHT22;1778;47.966;7.854;2022-10-16T06:56:21;16.30;99.90
3528;DHT22;1778;47.966;7.854;2022-10-16T06:57:23;16.30;99.90
3528;DHT22;1778;47.966;7.854;2022-10-16T06:58:24;16.40;99.90
3528;DHT22;1778;47.966;7.854;2022-10-16T06:59:26;16.30;99.90
3528;DHT22;1778;47.966;7.854;2022-10-16T07:00:27;16.30;99.90
3528;DHT22;1778;47.966;7.854;2022-10-16T07:01:29;16.30;99.90
3528;DHT22;1778;47.966;7.854;2022-10-16T07:02:31;16.30;99.90
3528;DHT22;1778;47.966;7.854;2022-10-16T07:03:33;16.30;99.90
3528;DHT22;1778;47.966;7.854;2022-10-16T07:04:36;16.30;99.90
3528;DHT22;1778;47.966;7.854;2022-10-16T07:05:41;16.30;99.90
3528;DHT22;1778;47.966;7.854;2022-10-16T07:06:43;16.30;99.90
3528;DHT22;1778;47.966;7.854;2022-10-16T07:07:44;16.30;99.90
3528;DHT22;1778;47.966;7.854;2022-10-16T07:08:47;16.20;99.90
3528;DHT22;1778;47.966;7.854;2022-10-16T07:09:48;16.30;99.90
3528;DHT22;1778;47.966;7.854;2022-10-16T07:10:58;16.30;99.90
3528;DHT22;1778;47.966;7.854;2022-10-16T07:12:00;16.30;99.90